sensor_id;sensor_type;location;lat;lon;timestamp;P1;durP1;ratioP1;P2;durP2;ratioP2
15915;SDS011;8057;47.830;-3.870;2023-10-13T00:02:08;18.97;;;9.23;;
15915;SDS011;8057;47.830;-3.870;2023-10-13T00:06:38;16.63;;;8.90;;
15915;SDS011;8057;47.830;-3.870;2023-10-13T00:11:11;22.63;;;9.10;;
15915;SDS011;8057;47.830;-3.870;2023-10-13T00:15:41;24.77;;;9.83;;
15915;SDS011;8057;47.830;-3.870;2023-10-13T00:20:26;22.87;;;9.43;;
15915;SDS011;8057;47.830;-3.870;2023-10-13T00:25:02;16.90;;;8.27;;
15915;SDS011;8057;47.830;-3.870;2023-10-13T00:29:32;18.30;;;9.40;;
15915;SDS011;8057;47.830;-3.870;2023-10-13T00:34:04;21.03;;;8.17;;
15915;SDS011;8057;47.830;-3.870;2023-10-13T00:38:40;24.93;;;8.93;;
15915;SDS011;8057;47.830;-3.870;2023-10-13T00:43:09;21.03;;;9.10;;
15915;SDS011;8057;47.830;-3.870;2023-10-13T00:47:56;21.37;;;9.13;;
15915;SDS011;8057;47.830;-3.870;2023-10-13T00:52:28;17.23;;;8.67;;
15915;SDS011;8057;47.830;-3.870;2023-10-13T00:57:01;21.77;;;9.50;;
15915;SDS011;8057;47.830;-3.870;2023-10-13T01:01:39;18.93;;;8.63;;
15915;SDS011;8057;47.830;-3.870;2023-10-13T01:06:11;18.93;;;9.50;;
15915;SDS011;8057;47.830;-3.870;2023-10-13T01:10:41;17.73;;;8.87;;
15915;SDS011;8057;47.830;-3.870;2023-10-13T01:15:12;18.70;;;9.20;;
15915;SDS011;8057;47.830;-3.870;2023-10-13T01:19:45;21.33;;;8.63;;
15915;SDS011;8057;47.830;-3.870;2023-10-13T01:24:17;19.73;;;8.47;;
15915;SDS011;8057;47.830;-3.870;2023-10-13T01:28:56;20.30;;;8.50;;
15915;SDS011;8057;47.830;-3.870;2023-10-13T01:33:26;16.67;;;8.50;;
15915;SDS011;8057;47.830;-3.870;2023-10-13T01:37:56;19.70;;;7.97;;
15915;SDS011;8057;47.830;-3.870;2023-10-13T01:42:27;22.20;;;9.77;;
15915;SDS011;8057;47.830;-3.870;2023-10-13T01:46:57;22.40;;;8.97;;
15915;SDS011;8057;47.830;-3.870;2023-10-13T01:51:33;21.00;;;8.77;;
15915;SDS011;8057;47.830;-3.870;2023-10-13T01:56:04;20.10;;;9.53;;
15915;SDS011;8057;47.830;-3.870;2023-10-13T02:00:38;19.40;;;9.00;;
15915;SDS011;8057;47.830;-3.870;2023-10-13T02:05:09;19.97;;;10.03;;
15915;SDS011;8057;47.830;-3.870;2023-10-13T02:09:42;19.57;;;9.43;;
15915;SDS011;8057;47.830;-3.870;2023-10-13T02:14:12;18.27;;;8.60;;
15915;SDS011;8057;47.830;-3.870;2023-10-13T02:18:45;18.93;;;8.53;;
15915;SDS011;8057;47.830;-3.870;2023-10-13T02:23:18;19.33;;;8.90;;
15915;SDS011;8057;47.830;-3.870;2023-10-13T02:27:48;19.83;;;10.30;;
15915;SDS011;8057;47.830;-3.870;2023-10-13T02:32:25;21.67;;;9.33;;
15915;SDS011;8057;47.830;-3.870;2023-10-13T02:36:58;19.47;;;9.70;;
15915;SDS011;8057;47.830;-3.870;2023-10-13T02:41:29;18.97;;;9.23;;
15915;SDS011;8057;47.830;-3.870;2023-10-13T02:45:59;22.90;;;10.27;;
15915;SDS011;8057;47.830;-3.870;2023-10-13T02:50:29;20.53;;;9.90;;
15915;SDS011;8057;47.830;-3.870;2023-10-13T02:55:02;25.57;;;10.83;;
15915;SDS011;8057;47.830;-3.870;2023-10-13T02:59:36;22.07;;;11.10;;
15915;SDS011;8057;47.830;-3.870;2023-10-13T03:04:07;22.57;;;10.37;;
15915;SDS011;8057;47.830;-3.870;2023-10-13T03:08:39;19.53;;;10.13;;
15915;SDS011;8057;47.830;-3.870;2023-10-13T03:13:11;23.13;;;10.03;;
15915;SDS011;8057;47.830;-3.870;2023-10-13T03:17:41;19.23;;;9.77;;
15915;SDS011;8057;47.830;-3.870;2023-10-13T03:22:12;19.70;;;9.40;;
15915;SDS011;8057;47.830;-3.870;2023-10-13T03:26:43;15.47;;;9.13;;
15915;SDS011;8057;47.830;-3.870;2023-10-13T03:31:21;19.23;;;10.13;;
15915;SDS011;8057;47.830;-3.870;2023-10-13T03:35:55;20.57;;;9.90;;
15915;SDS011;8057;47.830;-3.870;2023-10-13T03:40:32;17.63;;;9.47;;
15915;SDS011;8057;47.830;-3.870;2023-10-13T03:45:03;18.43;;;9.37;;
15915;SDS011;8057;47.830;-3.870;2023-10-13T03:49:39;21.00;;;9.37;;
15915;SDS011;8057;47.830;-3.870;2023-10-13T03:54:08;21.83;;;8.80;;
15915;SDS011;8057;47.830;-3.870;2023-10-13T03:58:42;19.43;;;9.20;;
15915;SDS011;8057;47.830;-3.870;2023-10-13T04:03:14;19.53;;;8.90;;
15915;SDS011;8057;47.830;-3.870;2023-10-13T04:07:47;18.07;;;9.50;;
15915;SDS011;8057;47.830;-3.870;2023-10-13T04:12:30;22.03;;;9.93;;
15915;SDS011;8057;47.830;-3.870;2023-10-13T04:17:22;19.20;;;8.83;;
15915;SDS011;8057;47.830;-3.870;2023-10-13T04:21:53;21.27;;;9.13;;
15915;SDS011;8057;47.830;-3.870;2023-10-13T04:26:27;20.53;;;9.33;;
15915;SDS011;8057;47.830;-3.870;2023-10-13T04:31:04;18.17;;;9.40;;
15915;SDS011;8057;47.830;-3.870;2023-10-13T04:35:52;23.17;;;10.47;;
15915;SDS011;8057;47.830;-3.870;2023-10-13T04:40:26;22.47;;;10.07;;
15915;SDS011;8057;47.830;-3.870;2023-10-13T04:45:04;21.03;;;9.87;;
15915;SDS011;8057;47.830;-3.870;2023-10-13T04:49:54;22.50;;;10.27;;
15915;SDS011;8057;47.830;-3.870;2023-10-13T04:54:28;21.90;;;11.70;;
15915;SDS011;8057;47.830;-3.870;2023-10-13T04:59:01;25.23;;;10.63;;
15915;SDS011;8057;47.830;-3.870;2023-10-13T05:04:04;23.73;;;10.93;;
15915;SDS011;8057;47.830;-3.870;2023-10-13T05:08:47;22.03;;;10.70;;
15915;SDS011;8057;47.830;-3.870;2023-10-13T05:13:34;21.70;;;10.40;;
15915;SDS011;8057;47.830;-3.870;2023-10-13T05:18:26;22.20;;;10.70;;
15915;SDS011;8057;47.830;-3.870;2023-10-13T05:23:14;21.40;;;11.17;;
15915;SDS011;8057;47.830;-3.870;2023-10-13T05:28:00;24.07;;;11.43;;
15915;SDS011;8057;47.830;-3.870;2023-10-13T05:33:00;26.10;;;12.50;;
15915;SDS011;8057;47.830;-3.870;2023-10-13T07:24:42;30.37;;;12.10;;
15915;SDS011;8057;47.830;-3.870;2023-10-13T07:29:12;27.80;;;10.47;;
15915;SDS011;8057;47.830;-3.870;2023-10-13T07:33:41;29.07;;;11.63;;
15915;SDS011;8057;47.830;-3.870;2023-10-13T07:38:12;30.13;;;11.77;;
15915;SDS011;8057;47.830;-3.870;2023-10-13T07:42:43;31.43;;;11.97;;
15915;SDS011;8057;47.830;-3.870;2023-10-13T07:47:13;33.93;;;11.73;;
15915;SDS011;8057;47.830;-3.870;2023-10-13T07:51:46;31.83;;;10.50;;
15915;SDS011;8057;47.830;-3.870;2023-10-13T07:56:20;31.83;;;10.87;;
15915;SDS011;8057;47.830;-3.870;2023-10-13T08:00:49;36.07;;;10.97;;
15915;SDS011;8057;47.830;-3.870;2023-10-13T08:05:34;35.17;;;11.50;;
15915;SDS011;8057;47.830;-3.870;2023-10-13T08:10:23;34.63;;;10.80;;
15915;SDS011;8057;47.830;-3.870;2023-10-13T08:14:58;29.80;;;10.37;;
15915;SDS011;8057;47.830;-3.870;2023-10-13T08:19:40;38.63;;;10.73;;
15915;SDS011;8057;47.830;-3.870;2023-10-13T08:24:13;30.93;;;9.60;;
15915;SDS011;8057;47.830;-3.870;2023-10-13T08:28:42;30.47;;;10.80;;
15915;SDS011;8057;47.830;-3.870;2023-10-13T08:33:25;24.90;;;8.40;;
15915;SDS011;8057;47.830;-3.870;2023-10-13T08:37:55;29.30;;;9.13;;
15915;SDS011;8057;47.830;-3.870;2023-10-13T08:42:51;24.53;;;8.57;;
15915;SDS011;8057;47.830;-3.870;2023-10-13T08:47:38;28.10;;;8.70;;
15915;SDS011;8057;47.830;-3.870;2023-10-13T08:52:16;29.40;;;9.13;;
15915;SDS011;8057;47.830;-3.870;2023-10-13T08:57:05;30.77;;;8.90;;
15915;SDS011;8057;47.830;-3.870;2023-10-13T09:02:00;30.23;;;8.73;;
15915;SDS011;8057;47.830;-3.870;2023-10-13T09:06:43;26.03;;;6.90;;
15915;SDS011;8057;47.830;-3.870;2023-10-13T09:11:26;21.57;;;6.87;;
15915;SDS011;8057;47.830;-3.870;2023-10-13T09:16:08;25.17;;;6.77;;
15915;SDS011;8057;47.830;-3.870;2023-10-13T09:20:44;26.43;;;7.77;;
15915;SDS011;8057;47.830;-3.870;2023-10-13T09:25:29;34.73;;;10.03;;
15915;SDS011;8057;47.830;-3.870;2023-10-13T09:30:04;37.87;;;9.07;;
15915;SDS011;8057;47.830;-3.870;2023-10-13T09:34:45;33.80;;;9.63;;
15915;SDS011;8057;47.830;-3.870;2023-10-13T09:39:18;30.57;;;9.17;;
15915;SDS011;8057;47.830;-3.870;2023-10-13T09:43:57;25.63;;;7.87;;
15915;SDS011;8057;47.830;-3.870;2023-10-13T09:48:29;27.43;;;7.53;;
15915;SDS011;8057;47.830;-3.870;2023-10-13T09:53:01;30.10;;;7.80;;
15915;SDS011;8057;47.830;-3.870;2023-10-13T09:57:38;30.83;;;7.53;;
15915;SDS011;8057;47.830;-3.870;2023-10-13T10:02:15;26.63;;;7.27;;
15915;SDS011;8057;47.830;-3.870;2023-10-13T10:06:53;27.67;;;7.93;;
15915;SDS011;8057;47.830;-3.870;2023-10-13T10:11:37;25.77;;;7.40;;
15915;SDS011;8057;47.830;-3.870;2023-10-13T10:16:36;24.03;;;6.80;;
15915;SDS011;8057;47.830;-3.870;2023-10-13T10:21:13;30.47;;;7.40;;
15915;SDS011;8057;47.830;-3.870;2023-10-13T10:25:45;24.13;;;6.67;;
15915;SDS011;8057;47.830;-3.870;2023-10-13T10:30:23;25.73;;;7.97;;
15915;SDS011;8057;47.830;-3.870;2023-10-13T10:35:01;26.43;;;8.13;;
15915;SDS011;8057;47.830;-3.870;2023-10-13T10:39:35;22.53;;;5.40;;
15915;SDS011;8057;47.830;-3.870;2023-10-13T10:43:53;27.97;;;7.07;;
15915;SDS011;8057;47.830;-3.870;2023-10-13T10:48:05;26.30;;;7.03;;
15915;SDS011;8057;47.830;-3.870;2023-10-13T10:53:28;20.00;;;5.43;;
15915;SDS011;8057;47.830;-3.870;2023-10-13T14:41:18;22.53;;;6.60;;
15915;SDS011;8057;47.830;-3.870;2023-10-13T14:45:47;24.47;;;6.70;;
15915;SDS011;8057;47.830;-3.870;2023-10-13T14:50:15;20.53;;;5.47;;
15915;SDS011;8057;47.830;-3.870;2023-10-13T14:54:46;21.13;;;6.40;;
15915;SDS011;8057;47.830;-3.870;2023-10-13T14:59:22;21.00;;;5.93;;
15915;SDS011;8057;47.830;-3.870;2023-10-13T15:03:50;28.77;;;7.10;;
15915;SDS011;8057;47.830;-3.870;2023-10-13T15:08:21;29.30;;;6.23;;
15915;SDS011;8057;47.830;-3.870;2023-10-13T15:12:49;23.00;;;6.33;;
15915;SDS011;8057;47.830;-3.870;2023-10-13T15:17:19;22.93;;;6.43;;
15915;SDS011;8057;47.830;-3.870;2023-10-13T15:21:54;23.30;;;6.17;;
15915;SDS011;8057;47.830;-3.870;2023-10-13T15:26:22;27.63;;;6.70;;
15915;SDS011;8057;47.830;-3.870;2023-10-13T15:30:50;22.03;;;5.67;;
15915;SDS011;8057;47.830;-3.870;2023-10-13T15:35:33;20.20;;;5.60;;
15915;SDS011;8057;47.830;-3.870;2023-10-13T15:40:01;23.57;;;6.43;;
15915;SDS011;8057;47.830;-3.870;2023-10-13T15:44:30;22.27;;;5.60;;
15915;SDS011;8057;47.830;-3.870;2023-10-13T15:49:02;20.07;;;5.37;;
15915;SDS011;8057;47.830;-3.870;2023-10-13T15:53:41;21.70;;;5.37;;
15915;SDS011;8057;47.830;-3.870;2023-10-13T15:58:10;17.73;;;4.70;;
15915;SDS011;8057;47.830;-3.870;2023-10-13T16:02:39;21.40;;;5.50;;
15915;SDS011;8057;47.830;-3.870;2023-10-13T16:07:08;21.80;;;5.47;;
15915;SDS011;8057;47.830;-3.870;2023-10-13T16:11:38;26.77;;;6.00;;
15915;SDS011;8057;47.830;-3.870;2023-10-13T16:16:07;20.07;;;5.40;;
15915;SDS011;8057;47.830;-3.870;2023-10-13T16:20:42;17.17;;;4.13;;
15915;SDS011;8057;47.830;-3.870;2023-10-13T16:25:13;13.73;;;4.20;;
15915;SDS011;8057;47.830;-3.870;2023-10-13T16:29:45;16.03;;;4.27;;
15915;SDS011;8057;47.830;-3.870;2023-10-13T16:34:16;17.83;;;5.00;;
15915;SDS011;8057;47.830;-3.870;2023-10-13T16:38:45;16.73;;;3.70;;
15915;SDS011;8057;47.830;-3.870;2023-10-13T16:43:13;17.00;;;3.73;;
15915;SDS011;8057;47.830;-3.870;2023-10-13T16:47:43;11.40;;;3.57;;
15915;SDS011;8057;47.830;-3.870;2023-10-13T16:52:11;17.27;;;4.17;;
15915;SDS011;8057;47.830;-3.870;2023-10-13T16:56:39;15.17;;;3.80;;
15915;SDS011;8057;47.830;-3.870;2023-10-13T17:01:09;17.77;;;3.93;;
15915;SDS011;8057;47.830;-3.870;2023-10-13T17:05:42;13.87;;;4.17;;
15915;SDS011;8057;47.830;-3.870;2023-10-13T17:10:11;16.50;;;3.90;;
15915;SDS011;8057;47.830;-3.870;2023-10-13T17:14:39;19.20;;;4.97;;
15915;SDS011;8057;47.830;-3.870;2023-10-13T17:19:07;23.07;;;5.07;;
15915;SDS011;8057;47.830;-3.870;2023-10-13T17:23:36;18.13;;;4.20;;
15915;SDS011;8057;47.830;-3.870;2023-10-13T17:28:05;17.63;;;4.07;;
15915;SDS011;8057;47.830;-3.870;2023-10-13T17:32:38;18.57;;;4.30;;
15915;SDS011;8057;47.830;-3.870;2023-10-13T17:37:10;17.97;;;3.63;;
15915;SDS011;8057;47.830;-3.870;2023-10-13T17:41:39;13.93;;;3.50;;
15915;SDS011;8057;47.830;-3.870;2023-10-13T17:46:10;15.07;;;2.83;;
15915;SDS011;8057;47.830;-3.870;2023-10-13T17:50:38;17.77;;;3.90;;
15915;SDS011;8057;47.830;-3.870;2023-10-13T17:55:06;14.73;;;3.67;;
15915;SDS011;8057;47.830;-3.870;2023-10-13T17:59:37;15.07;;;3.73;;
15915;SDS011;8057;47.830;-3.870;2023-10-13T18:04:05;12.80;;;3.67;;
15915;SDS011;8057;47.830;-3.870;2023-10-13T18:08:40;14.00;;;2.83;;
15915;SDS011;8057;47.830;-3.870;2023-10-13T18:13:09;11.33;;;2.53;;
15915;SDS011;8057;47.830;-3.870;2023-10-13T18:17:39;10.20;;;2.90;;
15915;SDS011;8057;47.830;-3.870;2023-10-13T18:22:07;11.67;;;3.77;;
15915;SDS011;8057;47.830;-3.870;2023-10-13T18:26:40;8.73;;;3.17;;
15915;SDS011;8057;47.830;-3.870;2023-10-13T18:31:08;7.03;;;2.13;;
15915;SDS011;8057;47.830;-3.870;2023-10-13T18:35:39;9.17;;;2.23;;
15915;SDS011;8057;47.830;-3.870;2023-10-13T18:40:10;8.27;;;2.07;;
15915;SDS011;8057;47.830;-3.870;2023-10-13T18:44:40;3.37;;;1.47;;
15915;SDS011;8057;47.830;-3.870;2023-10-13T18:49:09;6.07;;;1.93;;
15915;SDS011;8057;47.830;-3.870;2023-10-13T18:53:40;3.30;;;1.03;;
15915;SDS011;8057;47.830;-3.870;2023-10-13T18:58:09;5.90;;;1.87;;
15915;SDS011;8057;47.830;-3.870;2023-10-13T19:02:36;5.57;;;1.77;;
15915;SDS011;8057;47.830;-3.870;2023-10-13T19:07:06;8.20;;;1.90;;
15915;SDS011;8057;47.830;-3.870;2023-10-13T19:11:36;3.87;;;1.50;;
15915;SDS011;8057;47.830;-3.870;2023-10-13T19:16:05;6.53;;;1.83;;
15915;SDS011;8057;47.830;-3.870;2023-10-13T19:20:34;7.20;;;1.47;;
15915;SDS011;8057;47.830;-3.870;2023-10-13T19:25:05;2.80;;;1.00;;
15915;SDS011;8057;47.830;-3.870;2023-10-13T19:29:38;5.57;;;1.40;;
15915;SDS011;8057;47.830;-3.870;2023-10-13T19:34:06;3.10;;;1.20;;
15915;SDS011;8057;47.830;-3.870;2023-10-13T19:38:35;3.47;;;1.17;;
15915;SDS011;8057;47.830;-3.870;2023-10-13T19:43:04;3.57;;;0.90;;
15915;SDS011;8057;47.830;-3.870;2023-10-13T19:47:40;6.47;;;1.40;;
15915;SDS011;8057;47.830;-3.870;2023-10-13T19:52:11;1.73;;;0.70;;
15915;SDS011;8057;47.830;-3.870;2023-10-13T19:56:42;3.83;;;1.10;;
15915;SDS011;8057;47.830;-3.870;2023-10-13T20:01:10;3.57;;;0.93;;
15915;SDS011;8057;47.830;-3.870;2023-10-13T20:05:42;5.37;;;1.07;;
15915;SDS011;8057;47.830;-3.870;2023-10-13T20:10:10;2.43;;;0.90;;
15915;SDS011;8057;47.830;-3.870;2023-10-13T20:14:37;3.73;;;0.70;;
15915;SDS011;8057;47.830;-3.870;2023-10-13T20:19:07;5.43;;;1.13;;
15915;SDS011;8057;47.830;-3.870;2023-10-13T20:23:36;1.97;;;1.20;;
15915;SDS011;8057;47.830;-3.870;2023-10-13T20:28:04;5.17;;;1.63;;
15915;SDS011;8057;47.830;-3.870;2023-10-13T20:32:33;6.27;;;1.20;;
15915;SDS011;8057;47.830;-3.870;2023-10-13T20:37:01;6.43;;;1.80;;
15915;SDS011;8057;47.830;-3.870;2023-10-13T20:41:32;6.87;;;1.60;;
15915;SDS011;8057;47.830;-3.870;2023-10-13T20:46:03;5.80;;;1.77;;
15915;SDS011;8057;47.830;-3.870;2023-10-13T20:50:31;7.93;;;2.53;;
15915;SDS011;8057;47.830;-3.870;2023-10-13T20:54:59;6.70;;;1.87;;
15915;SDS011;8057;47.830;-3.870;2023-10-13T20:59:29;9.30;;;2.07;;
15915;SDS011;8057;47.830;-3.870;2023-10-13T21:03:56;5.73;;;1.87;;
15915;SDS011;8057;47.830;-3.870;2023-10-13T21:08:26;8.20;;;1.97;;
15915;SDS011;8057;47.830;-3.870;2023-10-13T21:12:53;5.27;;;1.87;;
15915;SDS011;8057;47.830;-3.870;2023-10-13T21:17:25;4.43;;;1.60;;
15915;SDS011;8057;47.830;-3.870;2023-10-13T21:21:53;5.03;;;1.50;;
15915;SDS011;8057;47.830;-3.870;2023-10-13T21:26:22;7.40;;;2.07;;
15915;SDS011;8057;47.830;-3.870;2023-10-13T21:30:51;5.03;;;1.60;;
15915;SDS011;8057;47.830;-3.870;2023-10-13T21:35:21;5.27;;;1.67;;
15915;SDS011;8057;47.830;-3.870;2023-10-13T21:39:52;5.47;;;1.63;;
15915;SDS011;8057;47.830;-3.870;2023-10-13T21:44:20;8.40;;;2.33;;
15915;SDS011;8057;47.830;-3.870;2023-10-13T21:48:48;7.70;;;2.53;;
15915;SDS011;8057;47.830;-3.870;2023-10-13T21:53:18;7.63;;;2.40;;
15915;SDS011;8057;47.830;-3.870;2023-10-13T21:57:46;4.30;;;1.77;;
15915;SDS011;8057;47.830;-3.870;2023-10-13T22:02:15;5.73;;;2.10;;
15915;SDS011;8057;47.830;-3.870;2023-10-13T22:06:45;7.83;;;2.20;;
15915;SDS011;8057;47.830;-3.870;2023-10-13T22:11:15;6.63;;;2.13;;
15915;SDS011;8057;47.830;-3.870;2023-10-13T22:15:43;7.80;;;2.23;;
15915;SDS011;8057;47.830;-3.870;2023-10-13T22:20:11;7.90;;;1.80;;
15915;SDS011;8057;47.830;-3.870;2023-10-13T22:24:40;9.20;;;2.73;;
15915;SDS011;8057;47.830;-3.870;2023-10-13T22:29:10;8.67;;;3.10;;
15915;SDS011;8057;47.830;-3.870;2023-10-13T22:33:39;7.13;;;2.30;;
15915;SDS011;8057;47.830;-3.870;2023-10-13T22:38:07;7.30;;;2.17;;
15915;SDS011;8057;47.830;-3.870;2023-10-13T22:42:36;6.63;;;2.37;;
15915;SDS011;8057;47.830;-3.870;2023-10-13T22:47:06;9.00;;;2.63;;
15915;SDS011;8057;47.830;-3.870;2023-10-13T22:51:36;8.67;;;2.57;;
15915;SDS011;8057;47.830;-3.870;2023-10-13T22:56:04;14.70;;;3.53;;
15915;SDS011;8057;47.830;-3.870;2023-10-13T23:00:32;8.63;;;2.50;;
15915;SDS011;8057;47.830;-3.870;2023-10-13T23:05:17;10.13;;;2.73;;
15915;SDS011;8057;47.830;-3.870;2023-10-13T23:10:17;9.70;;;2.70;;
15915;SDS011;8057;47.830;-3.870;2023-10-13T23:14:58;12.67;;;3.50;;
15915;SDS011;8057;47.830;-3.870;2023-10-13T23:19:26;9.13;;;3.23;;
15915;SDS011;8057;47.830;-3.870;2023-10-13T23:23:55;9.67;;;2.93;;
15915;SDS011;8057;47.830;-3.870;2023-10-13T23:28:23;10.20;;;2.90;;
15915;SDS011;8057;47.830;-3.870;2023-10-13T23:33:01;9.37;;;2.83;;
15915;SDS011;8057;47.830;-3.870;2023-10-13T23:37:29;9.93;;;3.40;;
15915;SDS011;8057;47.830;-3.870;2023-10-13T23:41:59;7.67;;;3.00;;
15915;SDS011;8057;47.830;-3.870;2023-10-13T23:46:32;13.07;;;3.63;;
15915;SDS011;8057;47.830;-3.870;2023-10-13T23:51:01;9.83;;;3.10;;
15915;SDS011;8057;47.830;-3.870;2023-10-13T23:55:30;10.97;;;3.13;;
